createdAt,value
2022-08-04T00:01:21.559Z,21.70
2022-08-04T00:03:56.948Z,21.60
2022-08-04T00:06:37.524Z,21.60
2022-08-04T00:09:15.040Z,21.40
2022-08-04T00:11:48.670Z,21.50
2022-08-04T00:14:17.976Z,21.40
2022-08-04T00:16:49.292Z,21.40
2022-08-04T00:19:20.298Z,21.40
2022-08-04T00:21:57.374Z,21.40
2022-08-04T00:24:27.709Z,21.40
2022-08-04T00:26:56.050Z,21.40
2022-08-04T00:29:24.779Z,21.30
2022-08-04T00:31:57.477Z,21.20
2022-08-04T00:34:28.152Z,21.20
2022-08-04T00:36:58.006Z,21.10
2022-08-04T00:39:28.713Z,21.00
2022-08-04T00:42:27.279Z,21.00
2022-08-04T00:45:15.012Z,20.90
2022-08-04T00:47:56.369Z,20.90
2022-08-04T00:50:32.943Z,20.90
2022-08-04T00:53:09.585Z,20.90
2022-08-04T00:56:13.610Z,20.90
2022-08-04T00:58:52.084Z,20.90
2022-08-04T01:01:38.462Z,20.60
2022-08-04T01:04:22.236Z,20.50
2022-08-04T01:07:05.456Z,20.50
2022-08-04T01:09:47.108Z,20.30
2022-08-04T01:12:52.820Z,20.20
2022-08-04T01:15:26.970Z,20.20
2022-08-04T01:18:05.388Z,20.20
2022-08-04T01:20:36.258Z,20.20
2022-08-04T01:23:36.560Z,20.10
2022-08-04T01:26:43.552Z,20.10
2022-08-04T01:29:17.672Z,20.10
2022-08-04T01:31:57.236Z,20.10
2022-08-04T01:34:28.499Z,20.00
2022-08-04T01:37:01.749Z,19.90
2022-08-04T01:39:42.225Z,19.90
2022-08-04T01:42:12.782Z,19.80
2022-08-04T01:45:08.244Z,19.90
2022-08-04T01:47:46.410Z,19.90
2022-08-04T01:50:15.480Z,19.80
2022-08-04T01:52:50.712Z,19.80
2022-08-04T01:55:19.732Z,19.80
2022-08-04T01:57:50.213Z,19.70
2022-08-04T02:00:21.447Z,19.70
2022-08-04T02:02:51.592Z,19.80
2022-08-04T02:05:22.401Z,19.80
2022-08-04T02:08:03.497Z,19.70
2022-08-04T02:10:45.152Z,19.80
2022-08-04T02:13:24.754Z,19.70
2022-08-04T02:16:02.950Z,19.70
2022-08-04T02:18:34.700Z,19.70
2022-08-04T02:21:03.717Z,19.60
2022-08-04T02:23:37.883Z,19.60
2022-08-04T02:26:19.284Z,19.50
2022-08-04T02:28:59.583Z,19.50
2022-08-04T02:31:37.097Z,19.50
2022-08-04T02:34:41.480Z,19.50
2022-08-04T02:37:11.928Z,19.40
2022-08-04T02:39:48.268Z,19.40
2022-08-04T02:42:18.449Z,19.30
2022-08-04T02:44:51.437Z,19.30
2022-08-04T02:47:23.221Z,19.30
2022-08-04T02:49:53.753Z,19.20
2022-08-04T02:52:26.415Z,19.30
2022-08-04T02:54:57.392Z,19.20
2022-08-04T02:57:28.710Z,19.20
2022-08-04T03:00:11.013Z,19.10
2022-08-04T03:02:58.941Z,19.10
2022-08-04T03:05:57.613Z,19.00
2022-08-04T03:09:00.081Z,19.00
2022-08-04T03:11:54.074Z,18.80
2022-08-04T03:14:58.777Z,18.70
2022-08-04T03:18:07.797Z,18.70
2022-08-04T03:21:46.576Z,18.70
2022-08-04T03:24:52.252Z,18.70
2022-08-04T03:27:57.024Z,18.80
2022-08-04T03:30:30.651Z,18.70
2022-08-04T03:33:32.859Z,18.70
2022-08-04T03:36:59.106Z,18.60
2022-08-04T03:40:10.585Z,18.70
2022-08-04T03:43:57.721Z,18.80
2022-08-04T03:46:58.229Z,18.80
2022-08-04T03:50:00.807Z,18.80
2022-08-04T03:53:09.550Z,18.80
2022-08-04T03:55:58.283Z,18.70
2022-08-04T03:58:53.918Z,18.60
2022-08-04T04:02:02.582Z,18.60
2022-08-04T04:04:59.333Z,18.60
2022-08-04T04:08:12.491Z,18.60
2022-08-04T04:11:29.253Z,18.60
2022-08-04T04:14:27.692Z,18.50
2022-08-04T04:17:10.520Z,18.40
2022-08-04T04:20:12.142Z,18.40
2022-08-04T04:23:01.398Z,18.40
2022-08-04T04:25:41.266Z,18.40
2022-08-04T04:28:54.840Z,18.40
2022-08-04T04:31:40.483Z,18.50
2022-08-04T04:34:49.864Z,18.50
2022-08-04T04:38:05.633Z,18.50
2022-08-04T04:44:31.451Z,18.70
2022-08-04T04:48:06.941Z,18.80
2022-08-04T04:54:00.440Z,18.80
2022-08-04T04:56:38.236Z,18.80
2022-08-04T04:59:11.616Z,18.90
2022-08-04T05:02:08.773Z,18.90
2022-08-04T05:05:21.092Z,18.80
2022-08-04T05:08:42.948Z,18.90
2022-08-04T05:11:34.916Z,19.00
2022-08-04T05:14:37.447Z,19.00
2022-08-04T05:17:04.295Z,19.10
2022-08-04T05:19:54.265Z,18.90
2022-08-04T05:22:34.421Z,19.00
2022-08-04T05:25:07.890Z,19.10
2022-08-04T05:27:41.408Z,19.00
2022-08-04T05:30:14.201Z,18.90
2022-08-04T05:32:47.915Z,19.10
2022-08-04T05:58:14.845Z,20.00
2022-08-04T06:00:52.374Z,20.10
2022-08-04T06:03:21.215Z,20.10
2022-08-04T06:05:52.876Z,20.20
2022-08-04T06:11:11.188Z,20.40
2022-08-04T06:13:45.419Z,20.50
2022-08-04T06:16:39.928Z,20.70
2022-08-04T06:20:00.896Z,20.80
2022-08-04T06:22:16.095Z,20.80
2022-08-04T06:27:53.494Z,20.70
2022-08-04T06:30:26.259Z,21.10
2022-08-04T06:33:25.253Z,21.30
2022-08-04T06:35:57.808Z,21.40
2022-08-04T06:38:28.149Z,21.50
2022-08-04T06:41:04.374Z,21.90
2022-08-04T06:43:42.908Z,22.10
2022-08-04T06:46:18.813Z,22.20
2022-08-04T06:48:52.386Z,22.10
2022-08-04T06:51:25.041Z,22.30
2022-08-04T06:54:01.660Z,22.70
2022-08-04T06:56:32.199Z,22.80
2022-08-04T06:59:02.519Z,23.30
2022-08-04T07:01:33.632Z,23.40
2022-08-04T07:04:09.899Z,23.60
2022-08-04T07:06:38.510Z,24.80
2022-08-04T07:09:08.117Z,26.40
2022-08-04T07:11:44.435Z,27.10
2022-08-04T07:20:54.278Z,29.00
2022-08-04T07:23:26.005Z,28.40
2022-08-04T07:26:11.942Z,27.70
2022-08-04T07:35:01.775Z,28.40
2022-08-04T07:37:39.323Z,29.90
2022-08-04T07:40:27.857Z,30.20
2022-08-04T07:43:01.002Z,30.50
2022-08-04T07:45:34.171Z,30.90
2022-08-04T07:48:09.718Z,30.50
2022-08-04T07:50:49.321Z,31.10
2022-08-04T07:53:54.465Z,30.90
2022-08-04T07:56:20.107Z,31.30
2022-08-04T07:58:54.210Z,31.80
2022-08-04T08:01:38.148Z,31.50
2022-08-04T08:04:11.611Z,31.50
2022-08-04T08:06:46.484Z,32.00
2022-08-04T08:09:33.456Z,33.10
2022-08-04T08:12:38.441Z,33.00
2022-08-04T08:14:52.962Z,33.60
2022-08-04T08:17:23.478Z,34.40
2022-08-04T08:26:30.813Z,36.20
2022-08-04T08:29:07.273Z,37.20
2022-08-04T08:31:57.098Z,35.70
2022-08-04T08:34:28.743Z,36.90
2022-08-04T08:40:10.450Z,37.00
2022-08-04T08:44:03.853Z,36.40
2022-08-04T08:46:48.362Z,34.30
2022-08-04T08:50:08.683Z,35.50
2022-08-04T08:53:24.332Z,34.70
2022-08-04T08:56:32.978Z,33.90
2022-08-04T08:59:30.497Z,35.50
2022-08-04T09:02:38.707Z,35.50
2022-08-04T09:06:09.452Z,35.40
2022-08-04T09:09:57.860Z,33.30
2022-08-04T09:12:32.259Z,32.40
2022-08-04T09:15:06.628Z,32.90
2022-08-04T09:17:44.178Z,34.70
2022-08-04T09:20:35.846Z,35.50
2022-08-04T09:23:21.655Z,35.90
2022-08-04T09:29:01.976Z,36.10
2022-08-04T09:32:06.149Z,37.50
2022-08-04T09:35:08.369Z,35.90
2022-08-04T09:37:46.273Z,37.20
2022-08-04T09:46:45.726Z,34.70
2022-08-04T09:49:23.454Z,34.30
2022-08-04T09:52:02.242Z,33.30
2022-08-04T09:55:05.228Z,33.50
2022-08-04T09:57:52.986Z,33.60
2022-08-04T10:00:41.005Z,33.50
2022-08-04T10:03:19.950Z,32.90
2022-08-04T10:06:14.774Z,33.50
2022-08-04T10:09:16.850Z,33.70
2022-08-04T10:18:15.334Z,33.40
2022-08-04T10:21:06.219Z,33.60
2022-08-04T10:23:56.421Z,33.50
2022-08-04T10:26:36.256Z,33.60
2022-08-04T10:29:08.324Z,33.40
2022-08-04T10:31:45.662Z,33.70
2022-08-04T10:34:22.725Z,33.70
2022-08-04T10:43:22.254Z,33.60
2022-08-04T10:45:57.972Z,33.70
2022-08-04T10:48:41.322Z,33.80
2022-08-04T10:51:57.699Z,34.00
2022-08-04T10:54:45.299Z,34.10
2022-08-04T10:57:21.707Z,33.60
2022-08-04T11:00:00.765Z,34.20
2022-08-04T11:02:42.998Z,33.80
2022-08-04T11:05:23.484Z,33.60
2022-08-04T11:08:33.829Z,33.70
2022-08-04T11:25:34.678Z,33.70
2022-08-04T11:28:17.389Z,34.10
2022-08-04T11:31:19.696Z,33.70
2022-08-04T11:34:37.782Z,34.10
2022-08-04T11:41:26.372Z,34.20
2022-08-04T11:54:01.344Z,34.10
2022-08-04T11:57:03.320Z,34.60
2022-08-04T12:00:04.050Z,34.50
2022-08-04T12:03:09.702Z,34.60
2022-08-04T12:09:43.641Z,34.30
2022-08-04T12:22:38.732Z,35.00
2022-08-04T12:29:24.906Z,34.60
2022-08-04T12:36:27.101Z,35.00
2022-08-04T12:43:18.544Z,35.20
2022-08-04T12:46:25.743Z,35.10
2022-08-04T12:49:24.361Z,34.80
2022-08-04T12:55:27.600Z,35.10
2022-08-04T12:57:58.341Z,35.20
2022-08-04T13:00:42.371Z,35.30
2022-08-04T13:03:21.074Z,35.80
2022-08-04T13:05:56.546Z,35.50
2022-08-04T13:09:17.517Z,35.20
2022-08-04T13:11:57.174Z,35.10
2022-08-04T13:14:40.535Z,35.60
2022-08-04T13:20:46.130Z,35.20
2022-08-04T13:23:21.758Z,35.40
2022-08-04T13:26:45.196Z,34.70
2022-08-04T13:28:46.286Z,35.50
2022-08-04T13:31:17.956Z,35.70
2022-08-04T13:33:50.838Z,35.60
2022-08-04T13:36:27.073Z,35.10
2022-08-04T13:38:59.499Z,34.90
2022-08-04T13:41:31.208Z,34.80
2022-08-04T13:44:19.569Z,34.60
2022-08-04T13:52:35.309Z,34.70
2022-08-04T13:55:06.861Z,34.80
2022-08-04T13:57:48.590Z,35.10
2022-08-04T14:00:29.832Z,35.50
2022-08-04T14:03:23.116Z,34.90
2022-08-04T14:06:25.792Z,34.70
2022-08-04T14:12:45.651Z,34.80
2022-08-04T14:16:01.625Z,34.30
2022-08-04T14:18:36.350Z,34.70
2022-08-04T14:21:14.104Z,34.90
2022-08-04T14:23:47.616Z,34.90
2022-08-04T14:26:32.860Z,35.20
2022-08-04T14:29:26.977Z,34.80
2022-08-04T14:36:22.468Z,35.40
2022-08-04T14:39:00.524Z,35.00
2022-08-04T14:41:32.619Z,35.60
2022-08-04T14:44:02.419Z,36.00
2022-08-04T14:46:37.331Z,36.10
2022-08-04T14:49:13.312Z,36.10
2022-08-04T14:51:59.372Z,36.00
2022-08-04T15:01:25.408Z,35.80
2022-08-04T15:04:04.421Z,35.90
2022-08-04T15:06:39.323Z,35.70
2022-08-04T15:09:13.220Z,35.50
2022-08-04T15:11:45.285Z,35.30
2022-08-04T15:14:36.870Z,35.40
2022-08-04T15:17:30.160Z,35.50
2022-08-04T15:20:17.331Z,35.30
2022-08-04T15:26:01.550Z,35.40
2022-08-04T15:28:33.535Z,35.50
2022-08-04T15:34:48.881Z,35.40
2022-08-04T15:37:25.840Z,35.60
2022-08-04T15:40:00.625Z,35.50
2022-08-04T15:42:35.660Z,35.70
2022-08-04T15:45:21.903Z,35.50
2022-08-04T15:48:41.013Z,35.40
2022-08-04T15:55:23.479Z,35.40
2022-08-04T15:58:33.749Z,35.20
2022-08-04T16:01:18.300Z,35.00
2022-08-04T16:03:54.231Z,35.00
2022-08-04T16:06:47.439Z,34.90
2022-08-04T16:09:57.471Z,34.70
2022-08-04T16:13:07.737Z,35.00
2022-08-04T16:15:53.699Z,34.90
2022-08-04T16:18:40.634Z,34.90
2022-08-04T16:25:10.554Z,34.90
2022-08-04T16:27:45.313Z,34.90
2022-08-04T16:30:17.577Z,34.70
2022-08-04T16:32:48.056Z,34.70
2022-08-04T16:35:30.265Z,34.60
2022-08-04T16:38:16.094Z,34.40
2022-08-04T16:40:46.166Z,34.40
2022-08-04T16:43:23.777Z,34.50
2022-08-04T16:46:03.408Z,34.30
2022-08-04T16:48:39.545Z,34.40
2022-08-04T16:51:15.191Z,34.40
2022-08-04T16:53:53.965Z,34.40
2022-08-04T16:57:48.528Z,34.30
2022-08-04T17:00:36.301Z,34.00
2022-08-04T17:03:05.627Z,34.20
2022-08-04T17:05:40.128Z,34.20
2022-08-04T17:11:00.170Z,33.90
2022-08-04T17:14:02.931Z,33.70
2022-08-04T17:16:23.905Z,33.60
2022-08-04T17:18:54.954Z,33.60
2022-08-04T17:21:25.362Z,33.50
2022-08-04T17:24:12.962Z,33.40
2022-08-04T17:26:51.718Z,33.20
2022-08-04T17:29:43.480Z,33.10
2022-08-04T17:32:30.171Z,33.00
2022-08-04T17:35:10.056Z,32.80
2022-08-04T17:37:53.797Z,32.80
2022-08-04T17:44:04.146Z,32.60
2022-08-04T17:46:45.699Z,32.50
2022-08-04T17:49:32.249Z,32.50
2022-08-04T17:52:41.252Z,32.30
2022-08-04T17:55:38.046Z,32.30
2022-08-04T18:02:32.564Z,32.30
2022-08-04T18:06:03.295Z,32.30
2022-08-04T18:08:50.485Z,32.20
2022-08-04T18:11:28.760Z,32.10
2022-08-04T18:14:14.604Z,32.00
2022-08-04T18:16:47.807Z,31.90
2022-08-04T18:19:48.343Z,31.90
2022-08-04T18:22:31.861Z,31.70
2022-08-04T18:27:33.889Z,31.70
2022-08-04T18:30:34.056Z,31.50
2022-08-04T18:33:24.682Z,31.50
2022-08-04T18:36:34.656Z,31.30
2022-08-04T18:38:37.602Z,31.20
2022-08-04T18:41:28.847Z,31.10
2022-08-04T18:44:17.103Z,30.90
2022-08-04T18:46:55.988Z,30.80
2022-08-04T18:51:00.289Z,30.70
2022-08-04T18:52:16.110Z,30.70
2022-08-04T18:55:03.732Z,30.60
2022-08-04T18:58:01.023Z,30.60
2022-08-04T19:00:21.899Z,30.60
2022-08-04T19:02:53.181Z,30.70
2022-08-04T19:05:22.318Z,30.60
2022-08-04T19:08:32.620Z,30.50
2022-08-04T19:11:36.908Z,30.40
2022-08-04T19:14:00.889Z,30.30
2022-08-04T19:16:54.903Z,30.20
2022-08-04T19:19:49.559Z,30.00
2022-08-04T19:22:35.491Z,29.90
2022-08-04T19:25:04.878Z,29.80
2022-08-04T19:27:40.215Z,29.60
2022-08-04T19:30:17.674Z,29.40
2022-08-04T19:39:30.545Z,28.90
2022-08-04T19:43:01.701Z,28.70
2022-08-04T19:45:45.802Z,28.60
2022-08-04T19:48:19.571Z,28.40
2022-08-04T19:50:49.005Z,28.30
2022-08-04T19:53:37.560Z,28.30
2022-08-04T19:56:11.896Z,28.10
2022-08-04T19:59:12.851Z,28.00
2022-08-04T20:01:58.539Z,27.90
2022-08-04T20:04:26.910Z,27.70
2022-08-04T20:06:55.699Z,27.80
2022-08-04T20:09:27.204Z,27.80
2022-08-04T20:11:57.069Z,27.90
2022-08-04T20:14:31.259Z,27.80
2022-08-04T20:17:10.778Z,27.70
2022-08-04T20:19:42.036Z,27.70
2022-08-04T20:22:51.869Z,27.60
2022-08-04T20:25:36.046Z,27.50
2022-08-04T20:28:08.557Z,27.50
2022-08-04T20:30:54.262Z,27.50
2022-08-04T20:33:33.879Z,27.40
2022-08-04T20:36:36.858Z,27.30
2022-08-04T20:39:10.977Z,27.30
2022-08-04T20:41:53.201Z,27.30
2022-08-04T20:44:34.613Z,27.30
2022-08-04T20:47:03.453Z,27.20
2022-08-04T20:49:37.299Z,27.20
2022-08-04T20:52:13.399Z,27.20
2022-08-04T20:54:56.432Z,27.10
2022-08-04T20:57:48.681Z,27.00
2022-08-04T21:00:29.734Z,27.00
2022-08-04T21:06:29.225Z,27.00
2022-08-04T21:09:26.554Z,27.10
2022-08-04T21:12:10.706Z,27.10
2022-08-04T21:15:14.472Z,27.20
2022-08-04T21:17:59.455Z,27.20
2022-08-04T21:20:24.575Z,27.20
2022-08-04T21:23:02.122Z,27.20
2022-08-04T21:25:33.062Z,27.20
2022-08-04T21:28:12.038Z,27.20
2022-08-04T21:37:09.264Z,27.10
2022-08-04T21:39:50.579Z,27.10
2022-08-04T21:42:30.560Z,27.10
2022-08-04T21:45:02.369Z,27.10
2022-08-04T21:47:45.646Z,27.10
2022-08-04T21:53:05.341Z,27.10
2022-08-04T21:56:05.887Z,27.10
2022-08-04T21:58:26.804Z,27.00
2022-08-04T22:01:12.645Z,27.00
2022-08-04T22:03:52.851Z,27.00
2022-08-04T22:06:28.273Z,26.90
2022-08-04T22:08:57.916Z,26.90
2022-08-04T22:14:29.025Z,26.90
2022-08-04T22:16:58.684Z,26.90
2022-08-04T22:19:50.756Z,26.80
2022-08-04T22:22:25.524Z,26.80
2022-08-04T22:24:58.474Z,26.80
2022-08-04T22:27:55.065Z,26.70
2022-08-04T22:30:29.332Z,26.70
2022-08-04T22:33:02.436Z,26.60
2022-08-04T22:35:43.118Z,26.60
2022-08-04T22:38:24.263Z,26.60
2022-08-04T22:40:59.284Z,26.60
2022-08-04T22:43:32.456Z,26.60
2022-08-04T22:46:03.954Z,26.60
2022-08-04T22:48:35.582Z,26.50
2022-08-04T22:51:04.467Z,26.40
2022-08-04T22:53:35.721Z,26.40
2022-08-04T22:56:10.830Z,26.40
2022-08-04T22:58:51.183Z,26.40
2022-08-04T23:01:20.257Z,26.40
2022-08-04T23:03:55.782Z,26.30
2022-08-04T23:06:28.338Z,26.30
2022-08-04T23:08:57.261Z,26.20
2022-08-04T23:11:34.820Z,26.20
2022-08-04T23:14:06.220Z,26.20
2022-08-04T23:16:40.692Z,26.10
2022-08-04T23:19:12.200Z,26.10
2022-08-04T23:21:47.275Z,26.10
2022-08-04T23:24:16.267Z,26.00
2022-08-04T23:26:44.542Z,25.90
2022-08-04T23:29:14.148Z,25.90
2022-08-04T23:31:59.990Z,25.80
2022-08-04T23:34:29.316Z,25.70
2022-08-04T23:36:59.314Z,25.60
2022-08-04T23:40:03.849Z,25.50
2022-08-04T23:42:20.965Z,25.50
2022-08-04T23:44:51.456Z,25.50
2022-08-04T23:48:16.220Z,25.50
2022-08-04T23:50:09.007Z,25.50
2022-08-04T23:52:38.324Z,25.40
2022-08-04T23:55:10.894Z,25.30
2022-08-04T23:58:05.997Z,25.20
